sensor_id;sensor_type;location;lat;lon;timestamp;pressure;altitude;pressure_sealevel;temperature;humidity
62632;BME280;48703;51.248;-0.546;2023-04-23T00:01:47;99564;;;10.25;92.73
62632;BME280;48703;51.248;-0.546;2023-04-23T00:04:49;99561;;;10.24;93.03
62632;BME280;48703;51.248;-0.546;2023-04-23T00:07:51;99558;;;10.25;92.31
62632;BME280;48703;51.248;-0.546;2023-04-23T00:10:53;99558;;;10.25;92.67
62632;BME280;48703;51.248;-0.546;2023-04-23T00:13:55;99559;;;10.25;92.34
62632;BME280;48703;51.248;-0.546;2023-04-23T00:16:57;99561;;;10.24;92.29
62632;BME280;48703;51.248;-0.546;2023-04-23T00:19:59;99555;;;10.25;92.50
62632;BME280;48703;51.248;-0.546;2023-04-23T00:23:01;99560;;;10.24;92.21
62632;BME280;48703;51.248;-0.546;2023-04-23T00:26:03;99556;;;10.23;92.16
62632;BME280;48703;51.248;-0.546;2023-04-23T00:29:05;99552;;;10.22;91.50
62632;BME280;48703;51.248;-0.546;2023-04-23T00:32:07;99549;;;10.22;91.54
62632;BME280;48703;51.248;-0.546;2023-04-23T00:35:09;99546;;;10.23;91.24
62632;BME280;48703;51.248;-0.546;2023-04-23T00:38:11;99542;;;10.22;91.34
62632;BME280;48703;51.248;-0.546;2023-04-23T00:41:13;99541;;;10.22;90.97
62632;BME280;48703;51.248;-0.546;2023-04-23T00:44:15;99544;;;10.21;90.96
62632;BME280;48703;51.248;-0.546;2023-04-23T00:47:17;99540;;;10.20;91.21
62632;BME280;48703;51.248;-0.546;2023-04-23T00:50:19;99537;;;10.20;91.22
62632;BME280;48703;51.248;-0.546;2023-04-23T00:53:21;99535;;;10.21;91.43
62632;BME280;48703;51.248;-0.546;2023-04-23T00:56:23;99535;;;10.20;90.95
62632;BME280;48703;51.248;-0.546;2023-04-23T00:59:25;99535;;;10.21;90.69
62632;BME280;48703;51.248;-0.546;2023-04-23T01:02:27;99533;;;10.21;90.78
62632;BME280;48703;51.248;-0.546;2023-04-23T01:05:29;99534;;;10.21;90.87
62632;BME280;48703;51.248;-0.546;2023-04-23T01:08:31;99536;;;10.21;91.28
62632;BME280;48703;51.248;-0.546;2023-04-23T01:11:33;99540;;;10.20;91.20
62632;BME280;48703;51.248;-0.546;2023-04-23T01:14:35;99536;;;10.20;91.57
62632;BME280;48703;51.248;-0.546;2023-04-23T01:17:37;99531;;;10.19;91.53
62632;BME280;48703;51.248;-0.546;2023-04-23T01:20:39;99525;;;10.17;91.80
62632;BME280;48703;51.248;-0.546;2023-04-23T01:23:41;99523;;;10.16;91.49
62632;BME280;48703;51.248;-0.546;2023-04-23T01:26:43;99520;;;10.15;91.45
62632;BME280;48703;51.248;-0.546;2023-04-23T01:29:46;99515;;;10.14;91.00
62632;BME280;48703;51.248;-0.546;2023-04-23T01:32:47;99512;;;10.14;91.07
62632;BME280;48703;51.248;-0.546;2023-04-23T01:35:49;99510;;;10.12;90.87
62632;BME280;48703;51.248;-0.546;2023-04-23T01:38:51;99505;;;10.13;90.47
62632;BME280;48703;51.248;-0.546;2023-04-23T01:41:53;99503;;;10.11;90.13
62632;BME280;48703;51.248;-0.546;2023-04-23T01:44:55;99504;;;10.10;90.35
62632;BME280;48703;51.248;-0.546;2023-04-23T01:47:58;99506;;;10.08;90.04
62632;BME280;48703;51.248;-0.546;2023-04-23T01:50:59;99506;;;10.06;89.98
62632;BME280;48703;51.248;-0.546;2023-04-23T01:54:02;99503;;;10.04;89.78
62632;BME280;48703;51.248;-0.546;2023-04-23T01:57:04;99505;;;10.04;89.61
62632;BME280;48703;51.248;-0.546;2023-04-23T02:00:07;99503;;;10.03;89.97
62632;BME280;48703;51.248;-0.546;2023-04-23T02:03:08;99496;;;10.02;89.55
62632;BME280;48703;51.248;-0.546;2023-04-23T02:06:10;99491;;;10.02;89.94
62632;BME280;48703;51.248;-0.546;2023-04-23T02:09:12;99490;;;10.00;90.05
62632;BME280;48703;51.248;-0.546;2023-04-23T02:12:14;99493;;;9.99;89.74
62632;BME280;48703;51.248;-0.546;2023-04-23T02:15:16;99493;;;9.99;90.14
62632;BME280;48703;51.248;-0.546;2023-04-23T02:18:18;99491;;;9.99;90.52
62632;BME280;48703;51.248;-0.546;2023-04-23T02:21:20;99486;;;9.99;90.68
62632;BME280;48703;51.248;-0.546;2023-04-23T02:24:22;99483;;;9.99;90.64
62632;BME280;48703;51.248;-0.546;2023-04-23T02:27:24;99479;;;9.98;90.53
62632;BME280;48703;51.248;-0.546;2023-04-23T02:30:26;99480;;;9.98;90.39
62632;BME280;48703;51.248;-0.546;2023-04-23T02:33:28;99477;;;9.97;90.39
62632;BME280;48703;51.248;-0.546;2023-04-23T02:36:30;99478;;;9.96;90.18
62632;BME280;48703;51.248;-0.546;2023-04-23T02:39:32;99481;;;9.96;89.47
62632;BME280;48703;51.248;-0.546;2023-04-23T02:42:34;99483;;;9.95;89.50
62632;BME280;48703;51.248;-0.546;2023-04-23T02:45:36;99492;;;9.95;89.26
62632;BME280;48703;51.248;-0.546;2023-04-23T02:48:39;99493;;;9.94;89.09
62632;BME280;48703;51.248;-0.546;2023-04-23T02:51:40;99493;;;9.93;88.94
62632;BME280;48703;51.248;-0.546;2023-04-23T02:54:42;99490;;;9.91;88.69
62632;BME280;48703;51.248;-0.546;2023-04-23T02:57:44;99487;;;9.90;87.99
62632;BME280;48703;51.248;-0.546;2023-04-23T03:00:46;99487;;;9.89;87.36
62632;BME280;48703;51.248;-0.546;2023-04-23T03:03:48;99490;;;9.89;87.00
62632;BME280;48703;51.248;-0.546;2023-04-23T03:06:50;99489;;;9.88;86.66
62632;BME280;48703;51.248;-0.546;2023-04-23T03:09:52;99489;;;9.87;86.85
62632;BME280;48703;51.248;-0.546;2023-04-23T03:12:54;99486;;;9.87;87.16
62632;BME280;48703;51.248;-0.546;2023-04-23T03:15:56;99488;;;9.86;87.33
62632;BME280;48703;51.248;-0.546;2023-04-23T03:18:58;99485;;;9.86;87.39
62632;BME280;48703;51.248;-0.546;2023-04-23T03:22:00;99484;;;9.86;87.48
62632;BME280;48703;51.248;-0.546;2023-04-23T03:25:02;99479;;;9.85;87.66
62632;BME280;48703;51.248;-0.546;2023-04-23T03:28:04;99482;;;9.85;87.62
62632;BME280;48703;51.248;-0.546;2023-04-23T03:31:06;99483;;;9.84;88.28
62632;BME280;48703;51.248;-0.546;2023-04-23T03:34:08;99482;;;9.83;88.10
62632;BME280;48703;51.248;-0.546;2023-04-23T03:37:10;99484;;;9.83;88.46
62632;BME280;48703;51.248;-0.546;2023-04-23T03:40:13;99486;;;9.83;88.25
62632;BME280;48703;51.248;-0.546;2023-04-23T03:43:14;99479;;;9.83;88.07
62632;BME280;48703;51.248;-0.546;2023-04-23T03:46:16;99481;;;9.83;88.09
62632;BME280;48703;51.248;-0.546;2023-04-23T03:49:18;99479;;;9.82;88.07
62632;BME280;48703;51.248;-0.546;2023-04-23T03:52:20;99480;;;9.81;87.63
62632;BME280;48703;51.248;-0.546;2023-04-23T03:55:22;99485;;;9.80;87.29
62632;BME280;48703;51.248;-0.546;2023-04-23T03:58:24;99486;;;9.80;87.28
62632;BME280;48703;51.248;-0.546;2023-04-23T04:01:26;99488;;;9.79;87.23
62632;BME280;48703;51.248;-0.546;2023-04-23T04:04:28;99487;;;9.77;87.59
62632;BME280;48703;51.248;-0.546;2023-04-23T04:07:30;99489;;;9.76;87.41
62632;BME280;48703;51.248;-0.546;2023-04-23T04:10:32;99484;;;9.75;87.10
62632;BME280;48703;51.248;-0.546;2023-04-23T04:13:34;99484;;;9.73;86.82
62632;BME280;48703;51.248;-0.546;2023-04-23T04:16:36;99482;;;9.72;86.61
62632;BME280;48703;51.248;-0.546;2023-04-23T04:19:38;99480;;;9.71;86.63
62632;BME280;48703;51.248;-0.546;2023-04-23T04:22:40;99476;;;9.70;86.61
62632;BME280;48703;51.248;-0.546;2023-04-23T04:25:43;99478;;;9.69;86.62
62632;BME280;48703;51.248;-0.546;2023-04-23T04:28:45;99473;;;9.68;86.66
62632;BME280;48703;51.248;-0.546;2023-04-23T04:31:47;99473;;;9.66;87.01
62632;BME280;48703;51.248;-0.546;2023-04-23T04:34:49;99473;;;9.64;86.74
62632;BME280;48703;51.248;-0.546;2023-04-23T04:37:51;99472;;;9.63;86.89
62632;BME280;48703;51.248;-0.546;2023-04-23T04:40:53;99473;;;9.61;86.64
62632;BME280;48703;51.248;-0.546;2023-04-23T04:43:55;99471;;;9.60;86.41
62632;BME280;48703;51.248;-0.546;2023-04-23T04:46:57;99467;;;9.58;86.67
62632;BME280;48703;51.248;-0.546;2023-04-23T04:49:59;99469;;;9.54;86.55
62632;BME280;48703;51.248;-0.546;2023-04-23T04:53:01;99467;;;9.52;86.82
62632;BME280;48703;51.248;-0.546;2023-04-23T04:56:03;99470;;;9.50;86.71
62632;BME280;48703;51.248;-0.546;2023-04-23T04:59:05;99468;;;9.49;86.40
62632;BME280;48703;51.248;-0.546;2023-04-23T05:02:07;99470;;;9.49;86.67
62632;BME280;48703;51.248;-0.546;2023-04-23T05:05:09;99469;;;9.48;86.79
62632;BME280;48703;51.248;-0.546;2023-04-23T05:08:11;99468;;;9.46;86.88
62632;BME280;48703;51.248;-0.546;2023-04-23T05:11:13;99470;;;9.44;86.81
62632;BME280;48703;51.248;-0.546;2023-04-23T05:14:15;99463;;;9.43;86.76
62632;BME280;48703;51.248;-0.546;2023-04-23T05:17:17;99460;;;9.42;86.73
62632;BME280;48703;51.248;-0.546;2023-04-23T05:20:19;99463;;;9.41;86.99
62632;BME280;48703;51.248;-0.546;2023-04-23T05:23:21;99461;;;9.39;87.04
62632;BME280;48703;51.248;-0.546;2023-04-23T05:26:23;99455;;;9.38;86.85
62632;BME280;48703;51.248;-0.546;2023-04-23T05:29:25;99454;;;9.38;86.97
62632;BME280;48703;51.248;-0.546;2023-04-23T05:32:27;99455;;;9.37;87.13
62632;BME280;48703;51.248;-0.546;2023-04-23T05:35:29;99456;;;9.37;87.00
62632;BME280;48703;51.248;-0.546;2023-04-23T05:38:31;99458;;;9.38;87.17
62632;BME280;48703;51.248;-0.546;2023-04-23T05:41:33;99457;;;9.37;87.01
62632;BME280;48703;51.248;-0.546;2023-04-23T05:44:35;99454;;;9.39;87.04
62632;BME280;48703;51.248;-0.546;2023-04-23T05:47:37;99456;;;9.40;87.09
62632;BME280;48703;51.248;-0.546;2023-04-23T05:50:39;99462;;;9.40;87.07
62632;BME280;48703;51.248;-0.546;2023-04-23T05:53:41;99464;;;9.41;86.77
62632;BME280;48703;51.248;-0.546;2023-04-23T05:56:43;99465;;;9.41;86.77
62632;BME280;48703;51.248;-0.546;2023-04-23T05:59:45;99459;;;9.40;86.88
62632;BME280;48703;51.248;-0.546;2023-04-23T06:02:47;99457;;;9.40;86.49
62632;BME280;48703;51.248;-0.546;2023-04-23T06:05:49;99460;;;9.41;86.43
62632;BME280;48703;51.248;-0.546;2023-04-23T06:08:51;99459;;;9.42;86.38
62632;BME280;48703;51.248;-0.546;2023-04-23T06:11:53;99459;;;9.42;86.60
62632;BME280;48703;51.248;-0.546;2023-04-23T06:14:55;99459;;;9.43;86.75
62632;BME280;48703;51.248;-0.546;2023-04-23T06:17:57;99453;;;9.44;86.49
62632;BME280;48703;51.248;-0.546;2023-04-23T06:20:59;99451;;;9.47;86.29
62632;BME280;48703;51.248;-0.546;2023-04-23T06:24:01;99452;;;9.49;86.45
62632;BME280;48703;51.248;-0.546;2023-04-23T06:27:03;99448;;;9.53;86.88
62632;BME280;48703;51.248;-0.546;2023-04-23T06:30:06;99440;;;9.60;87.15
62632;BME280;48703;51.248;-0.546;2023-04-23T06:33:07;99441;;;9.65;87.21
62632;BME280;48703;51.248;-0.546;2023-04-23T06:36:09;99443;;;9.70;86.60
62632;BME280;48703;51.248;-0.546;2023-04-23T06:39:11;99439;;;9.75;86.60
62632;BME280;48703;51.248;-0.546;2023-04-23T06:42:13;99437;;;9.79;86.53
62632;BME280;48703;51.248;-0.546;2023-04-23T06:45:15;99439;;;9.83;86.24
62632;BME280;48703;51.248;-0.546;2023-04-23T06:48:17;99439;;;9.88;86.77
62632;BME280;48703;51.248;-0.546;2023-04-23T06:51:19;99438;;;9.93;86.55
62632;BME280;48703;51.248;-0.546;2023-04-23T06:54:21;99440;;;9.99;86.93
62632;BME280;48703;51.248;-0.546;2023-04-23T06:57:23;99442;;;10.03;86.62
62632;BME280;48703;51.248;-0.546;2023-04-23T07:00:25;99445;;;10.07;86.07
62632;BME280;48703;51.248;-0.546;2023-04-23T07:03:28;99441;;;10.10;85.97
62632;BME280;48703;51.248;-0.546;2023-04-23T07:06:30;99443;;;10.14;86.45
62632;BME280;48703;51.248;-0.546;2023-04-23T07:09:32;99440;;;10.16;86.50
62632;BME280;48703;51.248;-0.546;2023-04-23T07:12:34;99439;;;10.21;86.44
62632;BME280;48703;51.248;-0.546;2023-04-23T07:15:36;99440;;;10.24;85.85
62632;BME280;48703;51.248;-0.546;2023-04-23T07:18:38;99440;;;10.26;85.75
62632;BME280;48703;51.248;-0.546;2023-04-23T07:21:40;99443;;;10.28;85.23
62632;BME280;48703;51.248;-0.546;2023-04-23T07:24:42;99440;;;10.31;85.26
62632;BME280;48703;51.248;-0.546;2023-04-23T07:27:44;99440;;;10.34;84.80
62632;BME280;48703;51.248;-0.546;2023-04-23T07:30:46;99440;;;10.35;84.69
62632;BME280;48703;51.248;-0.546;2023-04-23T07:33:48;99440;;;10.38;84.46
62632;BME280;48703;51.248;-0.546;2023-04-23T07:36:50;99440;;;10.39;83.53
62632;BME280;48703;51.248;-0.546;2023-04-23T07:39:52;99443;;;10.41;83.48
62632;BME280;48703;51.248;-0.546;2023-04-23T07:42:54;99443;;;10.42;84.03
62632;BME280;48703;51.248;-0.546;2023-04-23T07:45:56;99443;;;10.44;84.26
62632;BME280;48703;51.248;-0.546;2023-04-23T07:48:58;99444;;;10.47;84.19
62632;BME280;48703;51.248;-0.546;2023-04-23T07:52:00;99446;;;10.48;84.37
62632;BME280;48703;51.248;-0.546;2023-04-23T07:55:02;99448;;;10.49;84.50
62632;BME280;48703;51.248;-0.546;2023-04-23T07:58:04;99446;;;10.51;84.18
62632;BME280;48703;51.248;-0.546;2023-04-23T08:01:06;99445;;;10.52;83.79
62632;BME280;48703;51.248;-0.546;2023-04-23T08:04:08;99442;;;10.53;83.85
62632;BME280;48703;51.248;-0.546;2023-04-23T08:07:10;99441;;;10.55;83.88
62632;BME280;48703;51.248;-0.546;2023-04-23T08:10:12;99442;;;10.59;84.13
62632;BME280;48703;51.248;-0.546;2023-04-23T08:13:14;99441;;;10.61;83.69
62632;BME280;48703;51.248;-0.546;2023-04-23T08:16:16;99439;;;10.62;83.40
62632;BME280;48703;51.248;-0.546;2023-04-23T08:19:18;99439;;;10.64;83.76
62632;BME280;48703;51.248;-0.546;2023-04-23T08:22:20;99439;;;10.65;83.94
62632;BME280;48703;51.248;-0.546;2023-04-23T08:25:22;99440;;;10.65;84.26
62632;BME280;48703;51.248;-0.546;2023-04-23T08:28:24;99442;;;10.64;83.95
62632;BME280;48703;51.248;-0.546;2023-04-23T08:31:26;99444;;;10.65;84.63
62632;BME280;48703;51.248;-0.546;2023-04-23T08:34:28;99445;;;10.63;84.98
62632;BME280;48703;51.248;-0.546;2023-04-23T08:37:30;99444;;;10.63;85.28
62632;BME280;48703;51.248;-0.546;2023-04-23T08:40:32;99444;;;10.61;84.86
62632;BME280;48703;51.248;-0.546;2023-04-23T08:43:36;99444;;;10.59;84.97
62632;BME280;48703;51.248;-0.546;2023-04-23T08:46:36;99443;;;10.57;85.99
62632;BME280;48703;51.248;-0.546;2023-04-23T08:49:40;99444;;;10.54;85.67
62632;BME280;48703;51.248;-0.546;2023-04-23T08:52:41;99443;;;10.51;85.80
62632;BME280;48703;51.248;-0.546;2023-04-23T08:55:42;99442;;;10.51;85.83
62632;BME280;48703;51.248;-0.546;2023-04-23T08:58:44;99442;;;10.52;85.71
62632;BME280;48703;51.248;-0.546;2023-04-23T09:01:46;99439;;;10.52;85.89
62632;BME280;48703;51.248;-0.546;2023-04-23T09:04:48;99436;;;10.51;86.02
62632;BME280;48703;51.248;-0.546;2023-04-23T09:07:50;99433;;;10.50;86.71
62632;BME280;48703;51.248;-0.546;2023-04-23T09:10:53;99431;;;10.51;86.93
62632;BME280;48703;51.248;-0.546;2023-04-23T09:13:55;99431;;;10.51;87.03
62632;BME280;48703;51.248;-0.546;2023-04-23T09:16:56;99430;;;10.54;86.66
62632;BME280;48703;51.248;-0.546;2023-04-23T09:19:58;99429;;;10.55;86.65
62632;BME280;48703;51.248;-0.546;2023-04-23T09:23:00;99431;;;10.56;86.74
62632;BME280;48703;51.248;-0.546;2023-04-23T09:26:04;99428;;;10.56;86.69
62632;BME280;48703;51.248;-0.546;2023-04-23T09:29:05;99426;;;10.57;87.03
62632;BME280;48703;51.248;-0.546;2023-04-23T09:32:07;99423;;;10.59;87.07
62632;BME280;48703;51.248;-0.546;2023-04-23T09:35:10;99424;;;10.62;87.28
62632;BME280;48703;51.248;-0.546;2023-04-23T09:38:11;99425;;;10.66;87.64
62632;BME280;48703;51.248;-0.546;2023-04-23T09:41:20;99423;;;10.68;86.81
62632;BME280;48703;51.248;-0.546;2023-04-23T09:44:16;99420;;;10.70;86.96
62632;BME280;48703;51.248;-0.546;2023-04-23T09:47:17;99416;;;10.70;86.64
62632;BME280;48703;51.248;-0.546;2023-04-23T09:50:19;99411;;;10.72;86.57
62632;BME280;48703;51.248;-0.546;2023-04-23T09:53:21;99407;;;10.73;86.00
62632;BME280;48703;51.248;-0.546;2023-04-23T09:56:23;99405;;;10.77;86.91
62632;BME280;48703;51.248;-0.546;2023-04-23T09:59:25;99401;;;10.83;87.48
62632;BME280;48703;51.248;-0.546;2023-04-23T10:02:27;99400;;;10.88;88.13
62632;BME280;48703;51.248;-0.546;2023-04-23T10:05:29;99401;;;10.92;86.72
62632;BME280;48703;51.248;-0.546;2023-04-23T10:08:31;99402;;;10.97;86.32
62632;BME280;48703;51.248;-0.546;2023-04-23T10:11:33;99401;;;11.06;86.90
62632;BME280;48703;51.248;-0.546;2023-04-23T10:14:35;99398;;;11.11;86.95
62632;BME280;48703;51.248;-0.546;2023-04-23T10:17:37;99393;;;11.17;86.85
62632;BME280;48703;51.248;-0.546;2023-04-23T10:20:39;99394;;;11.25;87.24
62632;BME280;48703;51.248;-0.546;2023-04-23T10:23:41;99394;;;11.31;87.27
62632;BME280;48703;51.248;-0.546;2023-04-23T10:26:43;99392;;;11.34;85.46
62632;BME280;48703;51.248;-0.546;2023-04-23T10:29:45;99390;;;11.36;86.31
62632;BME280;48703;51.248;-0.546;2023-04-23T10:32:47;99389;;;11.40;86.21
62632;BME280;48703;51.248;-0.546;2023-04-23T10:35:49;99387;;;11.43;86.49
62632;BME280;48703;51.248;-0.546;2023-04-23T10:38:51;99386;;;11.46;86.54
62632;BME280;48703;51.248;-0.546;2023-04-23T10:41:53;99385;;;11.47;85.13
62632;BME280;48703;51.248;-0.546;2023-04-23T10:44:55;99382;;;11.44;83.15
62632;BME280;48703;51.248;-0.546;2023-04-23T10:47:57;99380;;;11.37;83.13
62632;BME280;48703;51.248;-0.546;2023-04-23T10:50:59;99381;;;11.34;84.31
62632;BME280;48703;51.248;-0.546;2023-04-23T10:54:02;99381;;;11.33;84.44
62632;BME280;48703;51.248;-0.546;2023-04-23T10:57:04;99380;;;11.31;84.13
62632;BME280;48703;51.248;-0.546;2023-04-23T11:00:06;99379;;;11.31;84.19
62632;BME280;48703;51.248;-0.546;2023-04-23T11:03:25;99379;;;11.32;85.20
62632;BME280;48703;51.248;-0.546;2023-04-23T11:06:11;99382;;;11.30;84.32
62632;BME280;48703;51.248;-0.546;2023-04-23T11:09:28;99383;;;11.28;83.12
62632;BME280;48703;51.248;-0.546;2023-04-23T11:12:29;99382;;;11.24;81.55
62632;BME280;48703;51.248;-0.546;2023-04-23T11:15:17;99383;;;11.19;81.89
62632;BME280;48703;51.248;-0.546;2023-04-23T11:18:17;99382;;;11.16;81.58
62632;BME280;48703;51.248;-0.546;2023-04-23T11:21:19;99379;;;11.17;82.76
62632;BME280;48703;51.248;-0.546;2023-04-23T11:23:28;99379;;;11.20;83.62
62632;BME280;48703;51.248;-0.546;2023-04-23T11:26:23;99379;;;11.19;82.97
62632;BME280;48703;51.248;-0.546;2023-04-23T11:29:25;99381;;;11.23;83.21
62632;BME280;48703;51.248;-0.546;2023-04-23T11:32:27;99380;;;11.25;80.93
62632;BME280;48703;51.248;-0.546;2023-04-23T11:35:29;99382;;;11.32;82.84
62632;BME280;48703;51.248;-0.546;2023-04-23T11:38:31;99381;;;11.38;81.25
62632;BME280;48703;51.248;-0.546;2023-04-23T11:41:33;99376;;;11.38;81.38
62632;BME280;48703;51.248;-0.546;2023-04-23T11:44:36;99373;;;11.44;82.85
62632;BME280;48703;51.248;-0.546;2023-04-23T11:47:37;99373;;;11.54;83.01
62632;BME280;48703;51.248;-0.546;2023-04-23T11:50:39;99376;;;11.62;83.23
62632;BME280;48703;51.248;-0.546;2023-04-23T11:53:43;99380;;;11.68;83.11
62632;BME280;48703;51.248;-0.546;2023-04-23T11:56:43;99377;;;11.75;82.96
62632;BME280;48703;51.248;-0.546;2023-04-23T11:59:45;99371;;;11.82;83.70
62632;BME280;48703;51.248;-0.546;2023-04-23T12:02:48;99372;;;11.93;83.72
62632;BME280;48703;51.248;-0.546;2023-04-23T12:05:49;99374;;;12.01;83.99
62632;BME280;48703;51.248;-0.546;2023-04-23T12:08:51;99373;;;12.06;82.68
62632;BME280;48703;51.248;-0.546;2023-04-23T12:11:53;99373;;;12.13;82.57
62632;BME280;48703;51.248;-0.546;2023-04-23T12:15:01;99372;;;12.21;83.61
62632;BME280;48703;51.248;-0.546;2023-04-23T12:18:07;99371;;;12.27;82.24
62632;BME280;48703;51.248;-0.546;2023-04-23T12:21:03;99367;;;12.35;83.87
62632;BME280;48703;51.248;-0.546;2023-04-23T12:24:02;99368;;;12.42;81.32
62632;BME280;48703;51.248;-0.546;2023-04-23T12:27:03;99373;;;12.53;83.19
62632;BME280;48703;51.248;-0.546;2023-04-23T12:30:06;99374;;;12.60;83.15
62632;BME280;48703;51.248;-0.546;2023-04-23T12:33:09;99373;;;12.61;80.96
62632;BME280;48703;51.248;-0.546;2023-04-23T12:36:10;99370;;;12.57;78.71
62632;BME280;48703;51.248;-0.546;2023-04-23T12:39:31;99370;;;12.55;80.69
62632;BME280;48703;51.248;-0.546;2023-04-23T12:42:13;99372;;;12.58;79.06
62632;BME280;48703;51.248;-0.546;2023-04-23T12:45:15;99371;;;12.53;75.11
62632;BME280;48703;51.248;-0.546;2023-04-23T12:48:17;99370;;;12.44;76.03
62632;BME280;48703;51.248;-0.546;2023-04-23T12:51:19;99363;;;12.34;74.75
62632;BME280;48703;51.248;-0.546;2023-04-23T12:54:22;99364;;;12.36;76.25
62632;BME280;48703;51.248;-0.546;2023-04-23T12:57:23;99369;;;12.32;74.42
62632;BME280;48703;51.248;-0.546;2023-04-23T13:00:25;99374;;;12.26;74.84
62632;BME280;48703;51.248;-0.546;2023-04-23T13:03:27;99374;;;12.34;76.20
62632;BME280;48703;51.248;-0.546;2023-04-23T13:06:29;99375;;;12.31;72.45
62632;BME280;48703;51.248;-0.546;2023-04-23T13:09:31;99370;;;12.23;73.23
62632;BME280;48703;51.248;-0.546;2023-04-23T13:12:34;99371;;;12.21;73.04
62632;BME280;48703;51.248;-0.546;2023-04-23T13:15:35;99370;;;12.26;73.70
62632;BME280;48703;51.248;-0.546;2023-04-23T13:18:38;99368;;;12.36;73.94
62632;BME280;48703;51.248;-0.546;2023-04-23T13:21:40;99370;;;12.48;74.97
62632;BME280;48703;51.248;-0.546;2023-04-23T13:24:42;99367;;;12.59;76.18
62632;BME280;48703;51.248;-0.546;2023-04-23T13:27:44;99365;;;12.64;75.30
62632;BME280;48703;51.248;-0.546;2023-04-23T13:30:46;99367;;;12.68;74.54
62632;BME280;48703;51.248;-0.546;2023-04-23T13:33:48;99366;;;12.71;76.01
62632;BME280;48703;51.248;-0.546;2023-04-23T13:36:50;99368;;;12.74;74.69
62632;BME280;48703;51.248;-0.546;2023-04-23T13:39:52;99370;;;12.67;74.44
62632;BME280;48703;51.248;-0.546;2023-04-23T13:42:54;99369;;;12.63;75.45
62632;BME280;48703;51.248;-0.546;2023-04-23T13:45:56;99367;;;12.63;75.60
62632;BME280;48703;51.248;-0.546;2023-04-23T13:48:58;99368;;;12.68;76.12
62632;BME280;48703;51.248;-0.546;2023-04-23T13:52:01;99366;;;12.71;75.04
62632;BME280;48703;51.248;-0.546;2023-04-23T13:55:02;99368;;;12.65;72.07
62632;BME280;48703;51.248;-0.546;2023-04-23T13:58:04;99364;;;12.65;71.43
62632;BME280;48703;51.248;-0.546;2023-04-23T14:01:06;99361;;;12.70;69.92
62632;BME280;48703;51.248;-0.546;2023-04-23T14:04:08;99359;;;12.70;69.70
62632;BME280;48703;51.248;-0.546;2023-04-23T14:07:10;99360;;;12.77;65.83
62632;BME280;48703;51.248;-0.546;2023-04-23T14:10:12;99362;;;12.84;67.17
62632;BME280;48703;51.248;-0.546;2023-04-23T14:13:14;99362;;;12.90;66.74
62632;BME280;48703;51.248;-0.546;2023-04-23T14:16:16;99358;;;12.99;67.42
62632;BME280;48703;51.248;-0.546;2023-04-23T14:19:18;99356;;;13.16;65.92
62632;BME280;48703;51.248;-0.546;2023-04-23T14:22:20;99361;;;13.22;64.87
62632;BME280;48703;51.248;-0.546;2023-04-23T14:25:23;99356;;;13.16;64.22
62632;BME280;48703;51.248;-0.546;2023-04-23T14:28:26;99350;;;13.13;64.55
62632;BME280;48703;51.248;-0.546;2023-04-23T14:31:26;99353;;;13.17;65.17
62632;BME280;48703;51.248;-0.546;2023-04-23T14:34:28;99355;;;13.29;65.95
62632;BME280;48703;51.248;-0.546;2023-04-23T14:37:30;99353;;;13.44;64.95
62632;BME280;48703;51.248;-0.546;2023-04-23T14:40:32;99343;;;13.63;63.94
62632;BME280;48703;51.248;-0.546;2023-04-23T14:43:34;99341;;;13.85;66.26
62632;BME280;48703;51.248;-0.546;2023-04-23T14:46:36;99341;;;13.93;64.25
62632;BME280;48703;51.248;-0.546;2023-04-23T14:49:38;99345;;;14.07;64.15
62632;BME280;48703;51.248;-0.546;2023-04-23T14:52:40;99339;;;14.04;61.52
62632;BME280;48703;51.248;-0.546;2023-04-23T14:55:42;99343;;;14.07;62.02
62632;BME280;48703;51.248;-0.546;2023-04-23T14:58:44;99347;;;14.02;62.14
62632;BME280;48703;51.248;-0.546;2023-04-23T15:01:46;99348;;;14.04;62.19
62632;BME280;48703;51.248;-0.546;2023-04-23T15:04:48;99343;;;14.04;63.93
62632;BME280;48703;51.248;-0.546;2023-04-23T15:07:50;99348;;;14.16;62.33
62632;BME280;48703;51.248;-0.546;2023-04-23T15:10:52;99351;;;14.13;62.70
62632;BME280;48703;51.248;-0.546;2023-04-23T15:13:55;99349;;;13.98;58.68
62632;BME280;48703;51.248;-0.546;2023-04-23T15:16:57;99354;;;13.91;60.85
62632;BME280;48703;51.248;-0.546;2023-04-23T15:19:59;99352;;;13.80;59.43
62632;BME280;48703;51.248;-0.546;2023-04-23T15:23:01;99353;;;13.71;60.54
62632;BME280;48703;51.248;-0.546;2023-04-23T15:26:03;99358;;;13.65;58.54
62632;BME280;48703;51.248;-0.546;2023-04-23T15:29:05;99360;;;13.62;59.94
62632;BME280;48703;51.248;-0.546;2023-04-23T15:32:07;99361;;;13.63;61.08
62632;BME280;48703;51.248;-0.546;2023-04-23T15:35:09;99360;;;13.71;62.47
62632;BME280;48703;51.248;-0.546;2023-04-23T15:38:11;99359;;;13.80;61.04
62632;BME280;48703;51.248;-0.546;2023-04-23T15:41:13;99362;;;13.88;61.20
62632;BME280;48703;51.248;-0.546;2023-04-23T15:44:15;99365;;;13.85;58.88
62632;BME280;48703;51.248;-0.546;2023-04-23T15:47:17;99364;;;13.88;59.82
62632;BME280;48703;51.248;-0.546;2023-04-23T15:50:19;99368;;;14.00;58.48
62632;BME280;48703;51.248;-0.546;2023-04-23T15:53:21;99363;;;14.19;57.78
62632;BME280;48703;51.248;-0.546;2023-04-23T15:56:23;99362;;;14.44;56.39
62632;BME280;48703;51.248;-0.546;2023-04-23T15:59:25;99364;;;14.46;56.17
62632;BME280;48703;51.248;-0.546;2023-04-23T16:02:27;99370;;;14.39;55.66
62632;BME280;48703;51.248;-0.546;2023-04-23T16:05:29;99374;;;14.32;54.46
62632;BME280;48703;51.248;-0.546;2023-04-23T16:08:31;99373;;;14.18;53.39
62632;BME280;48703;51.248;-0.546;2023-04-23T16:11:33;99372;;;14.11;52.37
62632;BME280;48703;51.248;-0.546;2023-04-23T16:14:35;99372;;;14.04;53.77
62632;BME280;48703;51.248;-0.546;2023-04-23T16:17:37;99375;;;13.99;53.62
62632;BME280;48703;51.248;-0.546;2023-04-23T16:20:39;99377;;;13.95;52.28
62632;BME280;48703;51.248;-0.546;2023-04-23T16:23:41;99379;;;13.97;55.19
62632;BME280;48703;51.248;-0.546;2023-04-23T16:26:43;99378;;;14.02;55.20
62632;BME280;48703;51.248;-0.546;2023-04-23T16:29:45;99381;;;14.01;54.05
62632;BME280;48703;51.248;-0.546;2023-04-23T16:32:47;99384;;;13.94;52.30